Pagrindinis puslapis
METAR-TAF:

METAR-TAF

Oro uostai :

Førde, Norvegija

platuma: 61-27N, ilguma: 005-52E, Aukštis: 150 m

Dabartinis oras

Ataskaita buvo paskelbta 28 minutes, ne 06:20 UTC
Vėjas 4 kt iš Pietų/Pietvakarių
Temperatūra 8°C
Drėgmė 93%
Slėgis 1026 hPa
Matomumas: 1300 m
Mažai debesys ne aukštis 300 ft
Išsisklaidę debesys ne aukštis 900 ft
Su prošvaistėmis ne aukštis 1800 ft
lietus, dulksna, Rūkas lopais

METAR: ENBL 180620Z 20004KT 4500 1300W -RADZ BCFG FEW003 SCT009 BKN018 08/07 Q1026

Laikas: 08:48 (06:48 UTC)


TAF: trūkstamas

Orai ataskaitas ir orų prognozės (METAR, TAF).

turimą stotys yra geltonos ir raudonos taškus žemėlapyje.

Perkelti pele per norėdami pamatyti stoties vardą.

Tada spustelėkite, norėdami matyti oro stebėjimo ir prognozės.

Norėdami pakeisti žemėlapį: spustelėkite ant žalios mygtukų su juodo kryžiaus žemyn,; žalią mygtuką su brūkšneliu, jei norite nutolinti; arba žalių rodyklių gretimoms žemėlapius.


METAR-TAF: